Time;durP1;ratioP1;P1;durP2;ratioP2;P2;SDS_P1;SDS_P2;PMS_P1;PMS_P2;Temp;Humidity;BMP_temperature;BMP_pressure;BME280_temperature;BME280_humidity;BME280_pressure;Samples;Min_cycle;Max_cycle;Signal;HPM_P1;HPM_P2
2023/06/01 00:05:08;;;;;;;22.13;11.60;;;12.90;99.90;;;;;;5032900;28;20040;-66
2023/06/01 00:07:33;;;;;;;19.90;11.77;;;12.80;99.90;;;;;;5032927;28;20105;-67
2023/06/01 00:10:00;;;;;;;23.95;13.02;;;12.80;99.90;;;;;;5032936;28;20091;-66
2023/06/01 00:12:26;;;;;;;22.85;12.23;;;12.80;99.90;;;;;;5032947;28;20022;-66
2023/06/01 00:14:52;;;;;;;19.65;11.93;;;12.90;99.90;;;;;;5032679;28;20076;-67
2023/06/01 00:17:19;;;;;;;26.80;13.52;;;12.80;99.90;;;;;;5032938;28;20052;-67
2023/06/01 00:19:45;;;;;;;22.45;13.65;;;12.80;99.90;;;;;;5032900;28;20025;-66
2023/06/01 00:22:11;;;;;;;27.10;13.80;;;12.80;99.90;;;;;;5032741;28;20490;-67
2023/06/01 00:24:37;;;;;;;26.02;13.57;;;12.80;99.90;;;;;;5032955;28;20037;-67
2023/06/01 00:27:03;;;;;;;28.88;14.10;;;12.80;99.90;;;;;;5032765;28;20038;-67
2023/06/01 00:29:29;;;;;;;22.48;13.65;;;12.70;99.90;;;;;;5032756;28;20414;-67
2023/06/01 00:31:55;;;;;;;20.10;12.02;;;12.70;99.90;;;;;;5032696;28;20030;-66
2023/06/01 00:34:21;;;;;;;27.60;13.70;;;12.60;99.90;;;;;;5032443;28;20099;-67
2023/06/01 00:36:46;;;;;;;21.83;12.95;;;12.50;99.90;;;;;;5032826;28;20064;-67
2023/06/01 00:39:12;;;;;;;22.20;12.48;;;12.40;99.90;;;;;;5032611;28;20033;-67
2023/06/01 00:41:38;;;;;;;19.38;13.10;;;12.30;99.90;;;;;;5033995;28;20056;-67
2023/06/01 00:44:03;;;;;;;22.63;14.27;;;12.20;99.90;;;;;;5036247;28;20502;-67
2023/06/01 00:46:30;;;;;;;28.02;14.40;;;12.10;99.90;;;;;;5036378;28;20032;-67
2023/06/01 00:48:57;;;;;;;31.52;15.82;;;12.10;99.90;;;;;;5036349;28;20079;-67
2023/06/01 00:51:23;;;;;;;30.63;15.85;;;12.10;99.90;;;;;;5034951;28;20037;-67
2023/06/01 00:53:49;;;;;;;32.92;16.60;;;12.00;99.90;;;;;;5036077;28;20104;-67
2023/06/01 00:56:16;;;;;;;32.15;16.35;;;12.00;99.90;;;;;;5035741;28;20060;-67
2023/06/01 00:58:43;;;;;;;33.97;17.02;;;11.90;99.90;;;;;;5035914;28;20472;-67
2023/06/01 01:01:18;;;;;;;32.83;17.50;;;11.90;99.90;;;;;;5036067;28;20025;-67
2023/06/01 01:03:46;;;;;;;34.35;17.15;;;11.90;99.90;;;;;;5035922;28;20109;-67
2023/06/01 01:06:36;;;;;;;32.60;18.17;;;11.90;99.90;;;;;;5036041;28;20392;-67
2023/06/01 01:09:27;;;;;;;33.63;17.48;;;11.80;99.90;;;;;;5035603;28;20033;-67
2023/06/01 01:12:01;;;;;;;33.53;17.38;;;11.80;99.90;;;;;;5035679;28;20075;-67
2023/06/01 01:14:49;;;;;;;37.28;18.80;;;11.70;99.90;;;;;;5035590;28;20602;-67
2023/06/01 01:17:26;;;;;;;35.17;19.15;;;11.70;99.90;;;;;;5035864;28;20087;-67
2023/06/01 01:19:58;;;;;;;37.92;17.80;;;11.60;99.90;;;;;;5035624;28;20471;-67
2023/06/01 01:25:56;;;;;;;38.53;18.45;;;11.60;99.90;;;;;;5070771;28;20492;-67
2023/06/01 01:28:45;;;;;;;38.30;19.20;;;11.50;99.90;;;;;;5070448;28;20486;-67
2023/06/01 01:31:15;;;;;;;38.45;17.77;;;11.40;99.90;;;;;;5070294;28;20020;-67
2023/06/01 01:33:42;;;;;;;41.38;19.10;;;11.30;99.90;;;;;;5070603;28;20075;-67
2023/06/01 01:36:09;;;;;;;43.25;19.13;;;11.20;99.90;;;;;;5070521;28;20048;-67
2023/06/01 01:38:36;;;;;;;39.35;19.77;;;11.20;99.90;;;;;;5070454;28;20031;-67
2023/06/01 01:41:02;;;;;;;42.25;19.00;;;11.20;99.90;;;;;;5070272;28;20063;-67
2023/06/01 01:43:29;;;;;;;43.30;20.08;;;11.10;99.90;;;;;;5070257;28;20028;-66
2023/06/01 01:46:05;;;;;;;43.00;20.77;;;11.20;99.90;;;;;;5070258;28;20017;-67
2023/06/01 01:48:38;;;;;;;37.95;19.85;;;11.20;99.90;;;;;;5070429;28;20031;-66
2023/06/01 01:51:13;;;;;;;41.80;20.00;;;11.20;99.90;;;;;;5070173;28;20083;-66
2023/06/01 01:53:41;;;;;;;38.35;19.15;;;11.30;99.90;;;;;;5070031;28;20493;-67
2023/06/01 01:56:08;;;;;;;37.08;19.35;;;11.30;99.90;;;;;;5069844;28;20032;-66
2023/06/01 01:58:34;;;;;;;40.72;18.88;;;11.40;99.90;;;;;;5069982;28;20032;-67
2023/06/01 02:01:02;;;;;;;41.15;20.40;;;11.40;99.90;;;;;;5069962;28;20082;-66
2023/06/01 02:03:28;;;;;;;39.88;20.00;;;11.40;99.90;;;;;;5069852;28;20029;-66
2023/06/01 02:05:54;;;;;;;46.42;21.48;;;11.30;99.90;;;;;;5069765;28;20021;-66
2023/06/01 02:08:20;;;;;;;40.40;22.05;;;11.40;99.90;;;;;;5069651;28;20394;-66
2023/06/01 02:10:45;;;;;;;44.28;23.30;;;11.30;99.90;;;;;;5069894;28;20021;-66
2023/06/01 02:13:11;;;;;;;48.17;23.77;;;11.30;99.90;;;;;;5069802;28;20032;-66
2023/06/01 02:15:37;;;;;;;49.00;24.85;;;11.20;99.90;;;;;;5069632;28;20482;-66
2023/06/01 02:18:02;;;;;;;47.90;24.92;;;11.20;99.90;;;;;;5069721;28;20107;-66
2023/06/01 02:20:28;;;;;;;44.35;23.70;;;11.30;99.90;;;;;;5069525;28;20041;-66
2023/06/01 02:22:53;;;;;;;50.30;24.92;;;11.20;99.90;;;;;;5069204;28;20025;-66
2023/06/01 02:25:19;;;;;;;48.13;24.90;;;11.20;99.90;;;;;;5069422;28;20536;-66
2023/06/01 02:27:45;;;;;;;49.55;24.35;;;11.30;99.90;;;;;;5069191;28;20433;-66
2023/06/01 02:30:11;;;;;;;52.10;27.73;;;11.30;99.90;;;;;;5069252;28;20393;-66
2023/06/01 02:32:37;;;;;;;47.45;26.65;;;11.30;99.90;;;;;;5069208;28;20067;-67
2023/06/01 02:35:04;;;;;;;48.42;25.13;;;11.20;99.90;;;;;;5064634;28;20021;-66
2023/06/01 02:37:30;;;;;;;40.22;24.30;;;11.20;99.90;;;;;;5056025;28;20033;-66
2023/06/01 02:39:55;;;;;;;47.60;24.98;;;11.20;99.90;;;;;;5056020;28;20156;-66
2023/06/01 02:42:21;;;;;;;46.13;26.13;;;11.20;99.90;;;;;;5056133;28;20107;-66
2023/06/01 02:44:46;;;;;;;45.63;24.20;;;11.20;99.90;;;;;;5055810;28;20025;-66
2023/06/01 02:47:12;;;;;;;42.67;24.67;;;11.20;99.90;;;;;;5055738;28;20021;-66
2023/06/01 02:49:37;;;;;;;47.83;24.73;;;11.20;99.90;;;;;;5055760;28;20035;-66
2023/06/01 02:52:03;;;;;;;41.47;24.23;;;11.20;99.90;;;;;;5055897;28;20025;-66
2023/06/01 02:54:29;;;;;;;45.85;24.58;;;11.20;99.90;;;;;;5055381;28;20075;-66
2023/06/01 02:56:54;;;;;;;44.95;23.90;;;11.20;99.90;;;;;;5055488;28;20038;-66
2023/06/01 02:59:20;;;;;;;44.90;25.27;;;11.30;99.90;;;;;;5055833;28;20124;-66
2023/06/01 03:01:46;;;;;;;47.85;27.20;;;11.20;99.90;;;;;;5055800;28;20029;-66
2023/06/01 03:04:12;;;;;;;47.58;27.17;;;11.20;99.90;;;;;;5055621;28;20390;-66
2023/06/01 03:06:39;;;;;;;47.10;25.10;;;11.20;99.90;;;;;;5055427;28;20031;-66
2023/06/01 03:09:05;;;;;;;46.85;25.05;;;11.10;99.90;;;;;;5055380;28;20390;-66
2023/06/01 03:11:30;;;;;;;50.25;26.25;;;11.10;99.90;;;;;;5055341;28;20108;-66
2023/06/01 03:13:57;;;;;;;47.80;27.52;;;11.10;99.90;;;;;;5055384;28;20029;-66
2023/06/01 03:16:23;;;;;;;47.30;27.27;;;11.10;99.90;;;;;;5055219;28;20025;-66
2023/06/01 03:18:50;;;;;;;47.10;25.92;;;11.00;99.90;;;;;;5054174;28;20029;-66
2023/06/01 03:21:16;;;;;;;47.08;26.60;;;11.00;99.90;;;;;;5055318;28;20029;-66
2023/06/01 03:23:43;;;;;;;46.33;25.90;;;10.90;99.90;;;;;;5054739;28;20045;-66
2023/06/01 03:26:12;;;;;;;48.35;26.13;;;10.90;99.90;;;;;;5055031;28;20025;-66
2023/06/01 03:28:38;;;;;;;48.58;25.75;;;10.90;99.90;;;;;;5055136;28;20022;-66
2023/06/01 03:31:04;;;;;;;47.42;26.73;;;10.90;99.90;;;;;;5054971;28;20021;-66
2023/06/01 03:33:30;;;;;;;50.20;26.58;;;10.90;99.90;;;;;;5054925;28;20112;-66
2023/06/01 03:35:56;;;;;;;44.78;25.65;;;10.90;99.90;;;;;;5055113;28;20061;-66
2023/06/01 03:38:22;;;;;;;45.38;26.10;;;10.90;99.90;;;;;;5054874;28;20498;-66
2023/06/01 03:40:47;;;;;;;48.65;26.90;;;10.90;99.90;;;;;;5055033;28;20040;-66
2023/06/01 03:43:13;;;;;;;50.35;26.70;;;10.80;99.90;;;;;;5054580;28;20040;-66
2023/06/01 03:45:38;;;;;;;46.28;27.27;;;10.90;99.90;;;;;;5054704;28;20108;-67
2023/06/01 03:48:05;;;;;;;46.47;26.48;;;10.80;99.90;;;;;;5053607;28;20036;-66
2023/06/01 03:50:30;;;;;;;45.33;25.15;;;10.80;99.90;;;;;;5054736;28;20108;-66
2023/06/01 03:52:56;;;;;;;43.35;25.13;;;10.70;99.90;;;;;;5054488;28;20053;-66
2023/06/01 03:55:22;;;;;;;41.35;24.40;;;10.70;99.90;;;;;;5054675;28;20122;-66
2023/06/01 03:57:48;;;;;;;40.47;23.38;;;10.70;99.90;;;;;;5054387;28;20489;-66
2023/06/01 04:00:22;;;;;;;40.20;22.55;;;10.80;99.90;;;;;;5054331;28;20055;-66
2023/06/01 04:02:52;;;;;;;33.80;21.65;;;10.70;99.90;;;;;;5054395;28;20159;-66
2023/06/01 04:05:18;;;;;;;40.13;22.75;;;10.80;99.90;;;;;;5054432;28;20116;-66
2023/06/01 04:07:46;;;;;;;42.03;22.45;;;10.70;99.90;;;;;;5054210;28;20021;-66
2023/06/01 04:10:13;;;;;;;34.72;21.73;;;10.70;99.90;;;;;;5052883;28;20020;-67
2023/06/01 04:12:41;;;;;;;35.65;21.60;;;10.70;99.90;;;;;;5054327;28;20055;-66
2023/06/01 04:15:07;;;;;;;34.30;20.73;;;10.70;97.80;;;;;;5054141;28;20446;-66
2023/06/01 04:17:36;;;;;;;34.33;20.27;;;10.70;97.50;;;;;;5054091;28;20048;-66
2023/06/01 04:20:06;;;;;;;34.53;20.73;;;10.70;99.80;;;;;;5053973;28;20029;-66
2023/06/01 04:22:32;;;;;;;36.25;21.58;;;10.70;98.30;;;;;;5054241;28;20470;-66
2023/06/01 04:24:58;;;;;;;32.17;21.63;;;10.80;98.50;;;;;;5053577;28;20044;-66
2023/06/01 04:27:24;;;;;;;36.53;21.73;;;10.70;98.00;;;;;;5053923;28;20039;-66
2023/06/01 04:29:50;;;;;;;39.42;21.48;;;10.80;99.90;;;;;;5053873;28;20017;-66
2023/06/01 04:32:21;;;;;;;38.22;22.15;;;10.80;98.50;;;;;;5053756;28;20032;-66
2023/06/01 04:34:49;;;;;;;33.17;21.05;;;10.80;96.60;;;;;;5053723;28;20470;-66
2023/06/01 04:37:19;;;;;;;35.78;20.88;;;10.80;94.40;;;;;;5053657;28;20086;-66
2023/06/01 04:39:48;;;;;;;35.38;20.23;;;10.80;96.40;;;;;;5053750;28;20437;-66
2023/06/01 04:42:16;;;;;;;33.78;21.17;;;10.80;94.00;;;;;;5053731;28;20056;-66
2023/06/01 04:44:42;;;;;;;34.53;20.60;;;10.80;96.40;;;;;;5053325;28;20021;-66
2023/06/01 04:47:08;;;;;;;36.42;21.17;;;10.90;96.50;;;;;;5053753;28;20441;-66
2023/06/01 04:49:35;;;;;;;29.73;19.02;;;11.00;96.40;;;;;;5053510;28;20017;-66
2023/06/01 04:52:02;;;;;;;35.20;20.52;;;11.10;92.10;;;;;;5053371;28;20025;-66
2023/06/01 04:54:27;;;;;;;32.20;19.55;;;11.20;84.70;;;;;;5053415;28;20434;-66
2023/06/01 04:56:53;;;;;;;31.75;19.65;;;11.20;81.60;;;;;;5053463;28;20154;-66
2023/06/01 04:59:21;;;;;;;33.95;20.48;;;11.20;78.30;;;;;;5053077;28;20072;-66
2023/06/01 05:01:46;;;;;;;35.85;20.48;;;11.10;61.50;;;;;;5053306;28;20029;-66
2023/06/01 05:04:12;;;;;;;31.20;20.17;;;11.00;75.50;;;;;;5053230;28;20056;-66
2023/06/01 05:06:37;;;;;;;35.92;20.23;;;11.10;59.00;;;;;;5053282;28;20052;-66
2023/06/01 05:09:04;;;;;;;36.05;21.08;;;11.10;59.50;;;;;;5053448;28;20029;-66
2023/06/01 05:11:30;;;;;;;29.92;19.13;;;11.10;67.10;;;;;;5053207;28;20036;-66
2023/06/01 05:14:01;;;;;;;33.00;19.48;;;11.00;62.00;;;;;;5053425;28;20398;-66
2023/06/01 05:16:27;;;;;;;32.60;20.13;;;11.00;61.00;;;;;;5053395;28;20138;-66
2023/06/01 05:18:53;;;;;;;29.50;19.95;;;11.20;62.00;;;;;;5053204;28;20035;-67
2023/06/01 05:21:18;;;;;;;31.98;18.48;;;11.10;47.50;;;;;;5053473;28;20115;-67
2023/06/01 05:23:44;;;;;;;31.48;20.13;;;11.10;51.70;;;;;;5052842;28;20578;-66
2023/06/01 05:26:10;;;;;;;31.77;19.27;;;11.10;52.70;;;;;;5053019;28;20409;-66
2023/06/01 05:28:35;;;;;;;31.63;19.38;;;11.20;53.30;;;;;;5053079;28;20097;-66
2023/06/01 05:31:02;;;;;;;35.05;19.50;;;11.30;44.90;;;;;;5053061;28;20148;-66
2023/06/01 05:33:27;;;;;;;30.42;19.15;;;11.40;35.60;;;;;;5052749;28;20025;-66
2023/06/01 05:35:53;;;;;;;33.22;19.08;;;11.30;40.30;;;;;;5052853;28;20040;-67
2023/06/01 05:38:19;;;;;;;31.00;18.90;;;11.50;39.50;;;;;;5053135;28;20029;-66
2023/06/01 05:40:45;;;;;;;40.25;19.63;;;11.50;28.60;;;;;;5053046;28;20036;-67
2023/06/01 05:43:11;;;;;;;31.70;19.17;;;11.70;21.40;;;;;;5052837;28;20029;-67
2023/06/01 05:45:37;;;;;;;33.90;19.30;;;11.70;18.80;;;;;;5052829;28;20021;-66
2023/06/01 05:48:02;;;;;;;30.25;17.80;;;11.70;21.60;;;;;;5052753;28;20033;-66
2023/06/01 05:50:28;;;;;;;31.98;18.90;;;11.80;22.80;;;;;;5052877;28;20037;-66
2023/06/01 05:52:55;;;;;;;28.95;18.48;;;11.80;17.60;;;;;;5052927;28;20051;-66
2023/06/01 05:55:20;;;;;;;25.33;17.60;;;11.90;14.00;;;;;;5052893;28;20040;-66
2023/06/01 05:57:46;;;;;;;27.73;17.33;;;12.00;8.40;;;;;;5052889;28;20475;-66
2023/06/01 06:00:13;;;;;;;31.35;18.90;;;11.90;1.00;;;;;;5052855;28;20040;-66
2023/06/01 06:02:41;;;;;;;34.03;18.05;;;11.90;11.20;;;;;;5052601;28;20040;-66
2023/06/01 06:05:08;;;;;;;28.95;17.50;;;11.90;5.60;;;;;;5052618;28;20029;-66
2023/06/01 06:07:34;;;;;;;30.45;18.13;;;11.80;11.70;;;;;;5052633;28;20025;-66
2023/06/01 06:10:00;;;;;;;29.00;17.85;;;11.90;7.30;;;;;;5033310;28;20048;-66
2023/06/01 06:12:25;;;;;;;30.20;17.42;;;11.80;4.80;;;;;;5036576;28;20040;-66
2023/06/01 06:14:51;;;;;;;29.42;17.48;;;11.90;14.50;;;;;;5036437;28;20025;-66
2023/06/01 06:17:16;;;;;;;30.77;17.90;;;12.00;8.80;;;;;;5036041;28;20036;-66
2023/06/01 06:19:43;;;;;;;28.27;17.50;;;12.10;1.00;;;;;;5036186;28;20045;-66
2023/06/01 06:22:09;;;;;;;30.27;16.92;;;12.20;1.90;;;;;;5036096;28;20033;-66
2023/06/01 06:24:35;;;;;;;28.27;17.42;;;12.30;1.00;;;;;;5035884;28;20056;-66
2023/06/01 06:27:01;;;;;;;32.15;17.83;;;12.20;1.00;;;;;;5036206;28;20025;-65
2023/06/01 06:29:27;;;;;;;27.63;17.60;;;12.20;1.00;;;;;;5036362;28;20422;-66
2023/06/01 06:31:53;;;;;;;26.85;16.55;;;12.30;1.00;;;;;;5035903;28;20026;-65
2023/06/01 06:34:18;;;;;;;35.65;18.17;;;12.20;1.00;;;;;;5036244;28;20391;-65
2023/06/01 06:36:44;;;;;;;29.42;16.55;;;12.40;1.00;;;;;;5035894;28;20037;-66
2023/06/01 06:39:10;;;;;;;29.52;17.00;;;12.30;1.00;;;;;;5035400;28;20064;-65
2023/06/01 06:41:36;;;;;;;30.10;16.05;;;12.40;1.00;;;;;;5035729;28;20026;-65
2023/06/01 06:44:01;;;;;;;27.50;15.90;;;12.30;1.00;;;;;;5035629;28;20025;-65
2023/06/01 06:46:28;;;;;;;32.30;16.98;;;12.10;1.00;;;;;;5034966;28;20040;-65
2023/06/01 06:48:55;;;;;;;28.08;16.45;;;12.30;1.00;;;;;;5035458;28;20487;-66
2023/06/01 06:51:21;;;;;;;28.67;16.83;;;12.20;1.00;;;;;;5035143;28;20084;-65
2023/06/01 06:53:47;;;;;;;27.83;16.13;;;12.30;1.00;;;;;;5035298;28;20044;-66
2023/06/01 06:56:12;;;;;;;30.58;17.10;;;12.50;1.00;;;;;;5035490;28;20501;-66
2023/06/01 06:58:38;;;;;;;25.75;14.88;;;12.70;1.00;;;;;;5035510;28;20037;-65
2023/06/01 07:01:05;;;;;;;23.45;14.48;;;12.70;1.00;;;;;;5035406;28;20114;-66
2023/06/01 07:03:31;;;;;;;26.00;14.80;;;12.90;1.00;;;;;;5035118;28;20022;-66
2023/06/01 07:05:57;;;;;;;21.00;13.95;;;12.80;1.00;;;;;;5035235;28;20523;-66
2023/06/01 07:08:23;;;;;;;21.58;13.50;;;12.90;1.00;;;;;;5035608;28;20467;-66
2023/06/01 07:10:48;;;;;;;24.75;14.13;;;13.20;1.00;;;;;;5034308;28;20029;-66
2023/06/01 07:13:14;;;;;;;25.13;13.77;;;13.00;1.00;;;;;;5034181;28;20025;-65
2023/06/01 07:15:40;;;;;;;23.60;13.65;;;13.10;1.00;;;;;;5034466;28;20442;-65
2023/06/01 07:18:06;;;;;;;25.15;13.98;;;13.30;1.00;;;;;;5035407;28;20025;-65
2023/06/01 07:20:32;;;;;;;24.02;13.00;;;13.50;1.00;;;;;;5034956;28;20372;-65
2023/06/01 07:22:57;;;;;;;23.15;12.85;;;13.60;1.00;;;;;;5034860;28;20022;-65
2023/06/01 07:25:23;;;;;;;23.73;13.25;;;13.80;1.00;;;;;;5034828;28;20033;-66
2023/06/01 07:27:50;;;;;;;23.95;13.07;;;13.80;1.00;;;;;;5034958;28;20025;-65
2023/06/01 07:30:16;;;;;;;24.40;13.05;;;14.00;99.90;;;;;;5034121;28;20083;-65
2023/06/01 07:32:42;;;;;;;22.40;12.82;;;13.90;1.00;;;;;;5035968;28;20025;-65
2023/06/01 07:35:09;;;;;;;22.40;13.02;;;13.90;83.80;;;;;;5034751;28;20491;-66
2023/06/01 07:37:35;;;;;;;22.88;12.43;;;13.70;71.30;;;;;;5034901;28;20475;-66
2023/06/01 07:40:01;;;;;;;26.58;13.18;;;13.90;99.90;;;;;;5034753;28;20498;-66
2023/06/01 07:42:27;;;;;;;24.52;13.23;;;14.30;42.70;;;;;;5034724;28;20022;-66
2023/06/01 07:44:53;;;;;;;24.67;13.35;;;14.20;99.90;;;;;;5034112;28;20029;-66
2023/06/01 07:47:19;;;;;;;18.25;13.07;;;14.10;99.90;;;;;;5033864;28;20030;-66
2023/06/01 07:49:45;;;;;;;22.35;12.90;;;14.20;1.00;;;;;;5034037;28;20018;-65
2023/06/01 07:52:10;;;;;;;24.45;13.00;;;14.10;99.90;;;;;;5034050;28;20025;-66
2023/06/01 07:54:36;;;;;;;20.92;12.50;;;14.10;1.00;;;;;;5033620;28;20034;-66
2023/06/01 07:57:04;;;;;;;19.73;11.65;;;14.40;99.90;;;;;;5033811;28;20028;-66
2023/06/01 07:59:31;;;;;;;19.88;12.55;;;14.40;99.90;;;;;;5034145;28;20037;-66
2023/06/01 08:01:58;;;;;;;20.75;12.18;;;15.00;19.90;;;;;;5033757;28;20103;-66
2023/06/01 08:04:24;;;;;;;21.13;12.10;;;15.20;13.90;;;;;;5033514;28;20380;-66
2023/06/01 08:06:52;;;;;;;18.83;11.05;;;15.90;99.90;;;;;;5033603;28;20024;-67
2023/06/01 08:09:21;;;;;;;18.73;11.68;;;16.20;1.00;;;;;;5032956;28;20029;-66
2023/06/01 08:11:47;;;;;;;17.65;10.93;;;17.40;99.90;;;;;;5030336;28;20022;-67
2023/06/01 08:14:13;;;;;;;17.10;10.20;;;17.70;99.90;;;;;;5033260;28;20036;-67
2023/06/01 08:16:38;;;;;;;18.17;11.10;;;18.20;99.90;;;;;;5032567;28;20480;-67
2023/06/01 08:19:04;;;;;;;17.70;11.85;;;17.70;99.90;;;;;;5033563;28;20032;-67
2023/06/01 08:21:30;;;;;;;17.00;11.40;;;17.20;99.90;;;;;;5037023;28;20021;-67
2023/06/01 08:23:55;;;;;;;18.40;11.05;;;17.00;1.00;;;;;;5033630;28;20064;-67
2023/06/01 08:26:23;;;;;;;19.23;11.45;;;16.80;1.00;;;;;;5033372;28;20104;-67
2023/06/01 08:28:52;;;;;;;17.42;11.55;;;16.90;27.20;;;;;;5032984;28;20036;-65
2023/06/01 08:31:20;;;;;;;20.90;11.90;;;16.30;1.00;;;;;;5032967;28;20434;-66
2023/06/01 08:33:46;;;;;;;19.55;11.68;;;16.00;99.90;;;;;;5032540;28;20033;-65
2023/06/01 08:36:11;;;;;;;22.58;13.02;;;15.80;99.90;;;;;;5033035;28;20029;-65
2023/06/01 08:38:37;;;;;;;19.90;12.30;;;15.50;1.00;;;;;;5032717;28;20403;-66
2023/06/01 08:41:27;;;;;;;20.40;12.15;;;15.40;99.90;;;;;;5032915;28;20033;-66
2023/06/01 08:43:57;;;;;;;19.88;12.13;;;15.90;99.90;;;;;;5031461;28;20113;-66
2023/06/01 08:46:25;;;;;;;22.90;12.40;;;16.10;1.00;;;;;;5033198;28;20071;-66
2023/06/01 08:48:54;;;;;;;27.85;12.40;;;16.30;99.90;;;;;;5033005;28;20024;-66
2023/06/01 08:51:22;;;;;;;19.88;11.90;;;15.90;99.90;;;;;;5031990;28;20100;-66
2023/06/01 08:53:49;;;;;;;22.08;12.23;;;16.40;62.30;;;;;;5034423;28;20038;-65
2023/06/01 08:56:15;;;;;;;23.20;12.23;;;16.40;2.30;;;;;;5033140;28;20057;-65
2023/06/01 08:58:43;;;;;;;25.08;12.20;;;16.30;99.90;;;;;;5032815;28;20509;-67
2023/06/01 09:01:10;;;;;;;20.13;12.13;;;16.20;99.90;;;;;;5027997;28;20045;-67
2023/06/01 09:03:35;;;;;;;19.33;12.30;;;16.20;99.90;;;;;;5024914;28;20033;-67
2023/06/01 09:06:01;;;;;;;22.40;12.30;;;16.30;1.00;;;;;;5032725;28;20446;-67
2023/06/01 09:08:27;;;;;;;21.75;13.65;;;16.00;1.00;;;;;;5033062;28;20395;-66
2023/06/01 09:10:52;;;;;;;19.70;12.70;;;15.70;99.90;;;;;;5032340;28;20387;-67
2023/06/01 09:13:38;;;;;;;24.02;12.60;;;15.60;99.90;;;;;;5032557;28;20398;-67
2023/06/01 09:16:05;;;;;;;18.65;12.55;;;15.60;97.40;;;;;;5029426;28;20467;-67
2023/06/01 09:18:30;;;;;;;22.55;12.60;;;15.70;99.90;;;;;;5033054;28;20480;-67
2023/06/01 09:21:12;;;;;;;22.88;11.80;;;15.80;99.90;;;;;;5033071;28;20029;-67
2023/06/01 09:23:38;;;;;;;19.13;12.02;;;15.60;1.00;;;;;;5021848;28;20046;-67
2023/06/01 09:26:06;;;;;;;22.52;12.77;;;15.60;98.00;;;;;;5033031;28;20029;-66
2023/06/01 09:31:40;;;;;;;19.67;11.68;;;15.80;99.90;;;;;;5111018;27;20296;-66
2023/06/01 09:34:08;;;;;;;19.85;12.10;;;16.10;99.90;;;;;;5111031;28;20423;-66
2023/06/01 09:36:36;;;;;;;20.77;10.88;;;16.00;99.90;;;;;;5110571;28;20027;-66
2023/06/01 09:39:08;;;;;;;18.52;11.55;;;16.00;1.00;;;;;;5090608;28;20524;-66
2023/06/01 09:44:28;;;;;;;16.58;11.13;;;16.10;99.90;;;;;;5111074;27;20792;-67
2023/06/01 09:46:57;;;;;;;20.92;12.15;;;16.10;99.90;;;;;;5111280;28;20032;-67
2023/06/01 09:49:25;;;;;;;22.52;11.38;;;16.20;99.90;;;;;;5111396;28;20564;-68
2023/06/01 09:51:52;;;;;;;21.77;12.65;;;15.70;1.00;;;;;;5110765;28;20028;-67
2023/06/01 09:54:22;;;;;;;21.25;12.82;;;15.40;99.90;;;;;;5110568;28;20030;-67
2023/06/01 09:56:49;;;;;;;23.02;13.15;;;15.60;99.90;;;;;;5110926;28;20098;-68
2023/06/01 09:59:14;;;;;;;20.85;11.70;;;15.80;99.90;;;;;;5110594;28;20059;-67
2023/06/01 10:01:41;;;;;;;20.65;13.18;;;15.70;99.90;;;;;;5110312;28;20480;-67
2023/06/01 10:04:10;;;;;;;21.67;13.30;;;15.30;99.90;;;;;;5110217;28;20150;-67
2023/06/01 10:06:39;;;;;;;21.45;12.27;;;15.40;59.00;;;;;;5107773;28;20119;-66
2023/06/01 10:09:14;;;;;;;21.85;11.77;;;15.30;99.90;;;;;;5109916;28;20423;-67
2023/06/01 10:11:39;;;;;;;20.63;12.75;;;15.40;1.00;;;;;;5109237;28;20069;-67
2023/06/01 10:14:06;;;;;;;22.48;13.23;;;15.30;1.00;;;;;;5109574;28;20036;-67
2023/06/01 10:16:32;;;;;;;20.08;12.70;;;15.30;1.00;;;;;;5110326;28;20508;-67
2023/06/01 10:18:58;;;;;;;24.83;13.20;;;15.50;99.90;;;;;;5109852;28;20031;-67
2023/06/01 10:21:25;;;;;;;22.95;13.30;;;15.50;1.30;;;;;;5109575;28;20046;-67
2023/06/01 10:23:50;;;;;;;26.83;13.93;;;14.90;99.90;;;;;;5109296;28;20078;-67
2023/06/01 10:26:18;;;;;;;23.55;13.68;;;15.20;99.90;;;;;;5109891;28;20510;-67
2023/06/01 10:28:46;;;;;;;21.50;12.95;;;15.10;1.00;;;;;;5109468;28;20392;-67
2023/06/01 10:31:40;;;;;;;21.83;12.65;;;15.30;1.00;;;;;;5109179;28;20012;-67
2023/06/01 10:34:07;;;;;;;20.98;12.15;;;15.50;1.00;;;;;;5108374;28;20550;-67
2023/06/01 10:36:55;;;;;;;21.98;12.82;;;15.60;1.00;;;;;;5109020;28;20024;-68
2023/06/01 10:39:24;;;;;;;24.05;12.45;;;16.00;99.90;;;;;;5089264;28;20397;-67
2023/06/01 10:41:50;;;;;;;21.23;12.35;;;16.20;1.00;;;;;;5090574;28;20530;-67
2023/06/01 10:52:34;;;;;;;20.77;12.80;;;16.70;99.90;;;;;;5110732;27;20137;-67
2023/06/01 10:57:45;;;;;;;19.85;12.88;;;16.60;99.90;;;;;;5111022;27;20950;-67
2023/06/01 11:00:23;;;;;;;20.65;12.55;;;16.50;99.10;;;;;;5110116;28;20092;-67
2023/06/01 11:02:59;;;;;;;23.25;13.35;;;16.70;99.90;;;;;;5110544;28;20059;-67
2023/06/01 11:05:46;;;;;;;22.60;13.30;;;16.30;1.00;;;;;;5110683;28;20427;-67
2023/06/01 11:11:09;;;;;;;25.45;14.07;;;16.50;1.90;;;;;;5110590;27;20566;-67
2023/06/01 11:13:37;;;;;;;26.95;13.85;;;16.50;1.00;;;;;;5110594;28;20032;-67
2023/06/01 11:21:21;;;;;;;25.38;15.27;;;16.80;1.00;;;;;;5090454;28;20133;-66
2023/06/01 11:23:47;;;;;;;24.60;15.35;;;16.30;99.90;;;;;;5073796;28;20040;-66
2023/06/01 11:26:16;;;;;;;25.23;14.98;;;16.40;1.00;;;;;;5069547;28;20478;-66
2023/06/01 11:28:43;;;;;;;21.98;14.48;;;16.50;1.00;;;;;;5069919;28;20031;-67
2023/06/01 11:31:12;;;;;;;24.05;14.57;;;16.30;72.70;;;;;;5070263;28;20025;-66
2023/06/01 11:33:40;;;;;;;21.77;13.50;;;16.50;99.90;;;;;;5070652;28;20079;-67
2023/06/01 11:36:10;;;;;;;20.40;12.85;;;16.70;17.40;;;;;;5077694;28;20032;-66
2023/06/01 11:38:38;;;;;;;22.63;13.15;;;17.00;99.90;;;;;;5068936;28;20028;-66
2023/06/01 11:41:04;;;;;;;19.55;11.77;;;16.90;11.70;;;;;;5079020;28;20033;-66
2023/06/01 11:43:31;;;;;;;26.85;12.90;;;16.80;99.90;;;;;;5074311;28;20027;-66
2023/06/01 11:46:03;;;;;;;19.63;12.90;;;16.90;47.80;;;;;;5069893;28;20048;-66
2023/06/01 11:48:29;;;;;;;20.00;13.18;;;16.80;1.00;;;;;;5069851;28;20372;-67
2023/06/01 11:50:55;;;;;;;20.67;13.18;;;16.60;1.00;;;;;;5075502;28;20031;-66
2023/06/01 11:53:22;;;;;;;24.00;13.35;;;16.80;99.90;;;;;;5070250;28;20029;-66
2023/06/01 11:55:50;;;;;;;19.20;12.05;;;17.00;99.90;;;;;;5082749;28;20492;-67
2023/06/01 11:58:31;;;;;;;24.75;13.40;;;17.10;1.00;;;;;;5082080;28;20489;-66
2023/06/01 12:00:57;;;;;;;22.05;12.82;;;16.60;99.90;;;;;;5077398;28;20033;-66
2023/06/01 12:03:24;;;;;;;22.50;12.95;;;16.80;99.90;;;;;;5081218;28;20031;-66
2023/06/01 12:05:50;;;;;;;19.30;12.48;;;16.90;1.00;;;;;;5079844;28;20514;-67
2023/06/01 12:08:20;;;;;;;21.33;13.15;;;17.00;1.00;;;;;;5077455;28;20032;-66
2023/06/01 12:10:47;;;;;;;24.35;13.02;;;16.80;99.90;;;;;;5085789;28;20032;-66
2023/06/01 12:13:14;;;;;;;21.83;13.57;;;16.80;1.00;;;;;;5074704;28;20324;-65
2023/06/01 12:15:39;;;;;;;17.50;12.20;;;16.60;99.90;;;;;;5068692;28;20436;-66
2023/06/01 12:18:05;;;;;;;22.48;13.50;;;16.70;90.10;;;;;;5068953;28;20111;-66
2023/06/01 12:20:35;;;;;;;25.45;14.73;;;17.10;99.90;;;;;;5068572;28;20037;-65
2023/06/01 12:23:13;;;;;;;19.15;12.02;;;16.60;99.90;;;;;;5069226;28;20028;-66
2023/06/01 12:25:57;;;;;;;17.95;12.40;;;17.10;1.00;;;;;;5069113;28;20483;-66
2023/06/01 12:28:24;;;;;;;;;;;17.20;99.90;;;;;;5068525;28;20090;-66
2023/06/01 12:31:10;;;;;;;18.17;11.23;;;17.20;99.90;;;;;;5065483;28;20377;-66
2023/06/01 12:33:36;;;;;;;17.38;11.60;;;17.30;99.90;;;;;;5055809;28;20032;-66
2023/06/01 12:36:04;;;;;;;20.33;12.07;;;17.30;99.90;;;;;;5055611;28;20508;-66
2023/06/01 12:38:37;;;;;;;15.38;11.40;;;17.30;99.90;;;;;;5054818;28;20028;-66
2023/06/01 12:41:10;;;;;;;17.55;10.82;;;17.40;99.90;;;;;;5055510;28;20544;-66
2023/06/01 12:43:36;;;;;;;17.67;10.80;;;17.20;99.90;;;;;;5055624;28;20032;-66
2023/06/01 12:46:05;;;;;;;15.43;10.75;;;17.50;99.90;;;;;;5055497;28;20467;-66
2023/06/01 12:48:33;;;;;;;15.07;10.35;;;17.10;99.90;;;;;;5054994;28;20021;-66
2023/06/01 12:50:59;;;;;;;20.17;11.38;;;17.10;99.90;;;;;;5054201;28;20032;-67
2023/06/01 12:53:24;;;;;;;17.70;11.93;;;17.40;99.90;;;;;;5055396;28;20081;-66
2023/06/01 12:55:50;;;;;;;18.63;13.40;;;17.40;99.90;;;;;;5055175;28;20029;-66
2023/06/01 12:58:15;;;;;;;23.98;13.10;;;17.00;99.90;;;;;;5055189;28;20040;-66
2023/06/01 13:00:41;;;;;;;18.02;11.45;;;17.00;25.10;;;;;;5054735;28;20166;-67
2023/06/01 13:03:07;;;;;;;18.00;11.55;;;17.10;99.90;;;;;;5035338;28;20055;-66
2023/06/01 13:05:33;;;;;;;16.95;11.60;;;17.10;99.90;;;;;;5040187;28;20453;-66